Aviation Digital Data Service (ADDS)

Output produced by METARs form (0352 UTC 26 April 2019)
found at http://www.aviationweather.gov/metar/data/
 
Forecast for: ESGG (GOTEBORG/LANDVET, SE)
Text: TAF ESGG 252330Z 2600/2624 11006KT CAVOK
Forecast period: 0000 UTC 26 April 2019 to 0000 UTC 27 April 2019
Forecast type: FROM: standard forecast or significant change
Winds: from the ESE (110 degrees) at 7 MPH (6 knots; 3.1 m/s)
Visibility: 6 or more miles 10+ km)
Ceiling: unknown
Clouds: missing
Weather: NSW  (no significant weather)
Text: PROB40 2619/2624 SHRA SCT045CB
Forecast period: 1900 UTC 26 April 2019 to 0000 UTC 27 April 2019
Forecast type: PROBABLE: 40 percent likelihood of the following during this time
Visibility: missing
Ceiling: at least 12,000 feet AGL
Clouds: scattered clouds at 4500 feet AGL
Weather: SHRA  (rain showers)